Time;durP1;ratioP1;P1;durP2;ratioP2;P2;SDS_P1;SDS_P2;PMS_P1;PMS_P2;Temp;Humidity;BMP_temperature;BMP_pressure;BME280_temperature;BME280_humidity;BME280_pressure;Samples;Min_cycle;Max_cycle;Signal;HPM_P1;HPM_P2
2023/11/28 00:01:31;;;;;;;7.47;2.08;;;;;;;7.26;100.00;99479.84;5052533;28;20389;-65
2023/11/28 00:03:59;;;;;;;11.90;2.38;;;;;;;7.39;100.00;99480.81;5050827;28;20048;-63
2023/11/28 00:06:26;;;;;;;6.20;2.15;;;;;;;7.23;100.00;99490.63;5045498;28;20064;-63
2023/11/28 00:08:54;;;;;;;7.53;2.75;;;;;;;7.39;100.00;99480.81;5034618;28;20049;-62
2023/11/28 00:11:23;;;;;;;5.45;2.17;;;;;;;7.17;100.00;99492.72;5051034;28;20515;-63
2023/11/28 00:13:50;;;;;;;7.07;2.00;;;;;;;7.10;100.00;99497.03;5028545;28;20041;-64
2023/11/28 00:16:18;;;;;;;7.20;2.20;;;;;;;7.28;100.00;99488.53;5057465;28;20048;-63
2023/11/28 00:18:46;;;;;;;6.28;2.47;;;;;;;7.26;100.00;99498.19;5065128;28;20052;-64
2023/11/28 00:21:14;;;;;;;7.47;2.13;;;;;;;7.05;100.00;99497.19;5052664;28;20064;-64
2023/11/28 00:23:42;;;;;;;5.47;2.38;;;;;;;7.35;100.00;99501.75;5050309;28;20477;-63
2023/11/28 00:26:10;;;;;;;7.28;2.47;;;;;;;7.21;100.00;99501.09;5051407;28;20136;-63
2023/11/28 00:28:51;;;;;;;5.80;2.05;;;;;;;7.25;100.00;99502.06;5050665;28;20519;-63
2023/11/28 00:31:18;;;;;;;10.30;2.42;;;;;;;7.45;100.00;99513.19;5069345;28;20053;-63
2023/11/28 00:33:47;;;;;;;8.05;1.90;;;;;;;7.27;100.00;99506.09;5050872;28;20044;-63
2023/11/28 00:36:17;;;;;;;7.50;2.42;;;;;;;7.31;100.00;99503.50;5052496;28;20068;-62
2023/11/28 00:38:44;;;;;;;6.78;2.03;;;;;;;7.21;100.00;99514.78;5055850;28;20049;-63
2023/11/28 00:41:14;;;;;;;6.13;2.22;;;;;;;7.34;100.00;99508.38;5053108;28;20591;-63
2023/11/28 00:43:41;;;;;;;8.50;2.83;;;;;;;7.18;100.00;99513.50;5057166;28;20047;-63
2023/11/28 00:46:10;;;;;;;6.50;2.33;;;;;;;7.33;100.00;99514.97;5059917;28;20060;-63
2023/11/28 00:48:37;;;;;;;6.18;1.90;;;;;;;7.21;100.00;99520.28;5046655;28;20053;-63
2023/11/28 00:51:05;;;;;;;5.93;2.47;;;;;;;7.19;100.00;99514.31;5048516;28;20057;-62
2023/11/28 00:53:32;;;;;;;7.30;2.08;;;;;;;7.34;100.00;99511.13;5067103;28;20385;-63
2023/11/28 00:56:00;;;;;;;6.65;2.05;;;;;;;7.28;100.00;99512.38;5053367;28;20495;-63
2023/11/28 00:58:27;;;;;;;6.22;2.55;;;;;;;7.24;100.00;99511.41;5055093;28;20045;-61
2023/11/28 01:00:54;;;;;;;4.03;1.80;;;;;;;7.12;100.00;99514.78;5045294;28;20053;-63
2023/11/28 01:03:22;;;;;;;6.60;1.90;;;;;;;7.09;100.00;99515.44;5048549;28;20068;-62
2023/11/28 01:05:50;;;;;;;4.88;1.70;;;;;;;6.97;100.00;99517.16;5040230;28;20572;-63
2023/11/28 01:08:17;;;;;;;4.00;1.85;;;;;;;7.01;100.00;99513.47;5045226;28;20064;-62
2023/11/28 01:10:45;;;;;;;5.03;2.10;;;;;;;7.11;100.00;99534.28;5041605;28;20061;-62
2023/11/28 01:13:12;;;;;;;4.47;1.92;;;;;;;7.20;100.00;99532.34;5041101;28;20049;-63
2023/11/28 01:15:39;;;;;;;7.40;2.70;;;;;;;7.21;100.00;99539.44;5030062;28;20041;-62
2023/11/28 01:18:06;;;;;;;5.78;2.20;;;;;;;7.04;100.00;99534.75;5014605;28;20166;-64
2023/11/28 01:20:34;;;;;;;4.80;2.00;;;;;;;7.08;100.00;99556.81;5048373;28;20668;-63
2023/11/28 01:23:02;;;;;;;5.00;1.95;;;;;;;7.31;100.00;99552.81;5046389;28;20061;-63
2023/11/28 01:25:29;;;;;;;8.73;1.95;;;;;;;7.11;100.00;99556.19;5050039;28;20055;-63
2023/11/28 01:27:56;;;;;;;6.43;2.10;;;;;;;6.91;100.00;99560.31;5048947;28;20645;-62
2023/11/28 01:30:24;;;;;;;5.15;1.85;;;;;;;7.15;100.00;99557.16;5050053;28;20053;-61
2023/11/28 01:32:51;;;;;;;4.00;1.80;;;;;;;7.09;100.00;99555.69;5052304;28;20048;-62
2023/11/28 01:35:20;;;;;;;6.30;2.00;;;;;;;7.08;100.00;99570.50;5038509;28;20056;-62
2023/11/28 01:37:47;;;;;;;6.70;1.92;;;;;;;7.24;100.00;99564.25;5039911;28;20045;-63
2023/11/28 01:40:15;;;;;;;7.43;2.42;;;;;;;7.02;100.00;99561.63;5049929;28;20060;-63
2023/11/28 01:42:45;;;;;;;4.60;2.30;;;;;;;7.16;100.00;99566.97;5046331;28;20060;-63
2023/11/28 01:45:13;;;;;;;8.60;2.60;;;;;;;7.27;100.00;99565.56;5040024;28;20056;-62
2023/11/28 01:47:40;;;;;;;8.18;2.40;;;;;;;7.15;100.00;99571.63;5032469;28;20064;-62
2023/11/28 01:50:08;;;;;;;6.63;2.22;;;;;;;7.11;100.00;99567.94;5069429;28;20049;-63
2023/11/28 01:52:36;;;;;;;8.73;2.70;;;;;;;7.21;100.00;99567.63;5049934;28;20049;-63
2023/11/28 01:55:04;;;;;;;8.15;2.50;;;;;;;7.19;100.00;99578.09;5031674;28;20697;-63
2023/11/28 01:57:32;;;;;;;3.83;2.10;;;;;;;7.33;100.00;99580.69;5038237;28;20052;-63
2023/11/28 02:00:00;;;;;;;6.45;2.65;;;;;;;7.39;100.00;99579.44;5053231;28;20049;-62
2023/11/28 02:02:29;;;;;;;6.03;2.63;;;;;;;7.44;98.20;99592.97;5067532;28;20059;-63
2023/11/28 02:04:57;;;;;;;9.18;3.00;;;;;;;7.21;99.52;99589.53;5057745;28;20067;-63
2023/11/28 02:07:24;;;;;;;7.25;2.75;;;;;;;7.28;99.53;99600.84;5052985;28;20059;-63
2023/11/28 02:09:51;;;;;;;4.60;2.42;;;;;;;7.44;100.00;99593.78;5053390;28;20072;-63
2023/11/28 02:12:18;;;;;;;8.43;2.72;;;;;;;7.46;98.20;99596.19;5033480;28;20053;-62
2023/11/28 02:14:46;;;;;;;7.80;2.78;;;;;;;7.32;98.48;99584.56;5058852;28;20048;-62
2023/11/28 02:17:13;;;;;;;4.53;2.40;;;;;;;7.50;98.68;99591.69;5064005;28;20049;-63
2023/11/28 02:19:41;;;;;;;6.35;2.83;;;;;;;7.55;97.42;99595.06;5050230;28;20052;-63
2023/11/28 02:22:09;;;;;;;6.30;2.58;;;;;;;7.24;98.76;99607.25;5053663;28;20048;-62
2023/11/28 02:24:39;;;;;;;8.88;2.80;;;;;;;7.06;100.00;99611.88;5049357;28;20056;-61
2023/11/28 02:27:06;;;;;;;9.40;3.00;;;;;;;7.21;99.96;99605.16;5042706;28;20059;-64
2023/11/28 02:29:34;;;;;;;7.40;3.28;;;;;;;7.21;100.00;99605.16;5053310;28;20053;-63
2023/11/28 02:32:01;;;;;;;7.68;3.20;;;;;;;7.40;99.33;99613.91;5051731;28;20048;-63
2023/11/28 02:34:28;;;;;;;10.13;3.67;;;;;;;7.64;98.60;99617.00;5059903;28;20048;-62
2023/11/28 02:36:55;;;;;;;7.72;3.50;;;;;;;7.44;97.63;99614.88;5051510;28;20053;-63
2023/11/28 02:39:23;;;;;;;7.97;3.58;;;;;;;7.36;99.41;99619.22;5048511;28;20053;-62
2023/11/28 02:41:50;;;;;;;9.02;3.80;;;;;;;7.31;99.37;99610.34;5051543;28;20053;-62
2023/11/28 02:44:17;;;;;;;6.30;3.58;;;;;;;7.18;99.63;99625.78;5048826;28;20057;-62
2023/11/28 02:46:44;;;;;;;9.07;4.30;;;;;;;7.30;100.00;99609.56;5066820;28;20057;-62
2023/11/28 02:49:12;;;;;;;8.18;4.18;;;;;;;7.42;99.52;99612.47;5054296;28;20055;-62
2023/11/28 02:51:39;;;;;;;8.00;4.10;;;;;;;7.28;99.81;99621.94;5048911;28;20049;-62
2023/11/28 02:54:06;;;;;;;8.73;3.92;;;;;;;7.26;100.00;99624.19;5051254;28;20045;-63
2023/11/28 02:56:33;;;;;;;8.43;4.20;;;;;;;7.37;100.00;99626.31;5051256;28;20052;-62
2023/11/28 02:59:01;;;;;;;10.05;4.28;;;;;;;7.59;99.80;99626.19;5049933;28;20045;-62
2023/11/28 03:01:28;;;;;;;7.97;4.68;;;;;;;7.30;99.73;99636.94;5043704;28;20045;-62
2023/11/28 03:03:55;;;;;;;9.27;4.10;;;;;;;7.40;100.00;99619.38;5050053;28;20148;-62
2023/11/28 03:06:25;;;;;;;12.52;4.32;;;;;;;7.29;100.00;99623.53;5057518;28;20049;-63
2023/11/28 03:08:52;;;;;;;14.55;4.32;;;;;;;7.16;100.00;99638.16;5055585;28;20049;-63
2023/11/28 03:11:19;;;;;;;8.50;4.15;;;;;;;7.17;100.00;99626.91;5037557;28;20052;-66
2023/11/28 03:13:47;;;;;;;10.75;4.25;;;;;;;7.36;100.00;99632.91;5048667;28;20056;-63
2023/11/28 03:16:14;;;;;;;11.05;4.03;;;;;;;7.07;100.00;99640.06;5050922;28;20053;-63
2023/11/28 03:18:41;;;;;;;7.72;3.97;;;;;;;7.15;100.00;99634.63;5049541;28;20053;-62
2023/11/28 03:21:09;;;;;;;10.10;4.35;;;;;;;7.39;100.00;99645.97;5048996;28;20056;-63
2023/11/28 03:23:36;;;;;;;9.40;3.90;;;;;;;7.30;100.00;99638.84;5050530;28;20056;-62
2023/11/28 03:26:03;;;;;;;10.20;4.45;;;;;;;7.46;100.00;99651.00;5055479;28;20055;-63
2023/11/28 03:28:31;;;;;;;9.10;3.58;;;;;;;7.31;100.00;99657.72;5062362;28;20112;-63
2023/11/28 03:30:58;;;;;;;9.57;3.85;;;;;;;7.15;100.00;99653.00;5045106;28;20045;-63
2023/11/28 03:33:25;;;;;;;8.30;3.92;;;;;;;7.16;100.00;99666.38;5056519;28;20063;-67
2023/11/28 03:35:52;;;;;;;9.88;3.88;;;;;;;7.25;100.00;99674.63;5043914;28;20056;-67
2023/11/28 03:38:20;;;;;;;9.82;4.38;;;;;;;7.10;100.00;99669.53;5062406;28;20401;-68
2023/11/28 03:40:47;;;;;;;12.98;4.22;;;;;;;7.20;100.00;99674.75;5048951;28;20056;-66
2023/11/28 03:43:15;;;;;;;10.63;4.35;;;;;;;7.15;100.00;99680.38;5048720;28;20060;-63
2023/11/28 03:45:42;;;;;;;13.43;4.70;;;;;;;7.22;100.00;99689.72;5050459;28;20049;-62
2023/11/28 03:48:09;;;;;;;11.55;4.63;;;;;;;6.87;100.00;99690.69;5048786;28;20060;-66
2023/11/28 03:50:36;;;;;;;9.50;4.85;;;;;;;6.87;100.00;99698.13;5028152;28;20053;-67
2023/11/28 03:53:04;;;;;;;10.02;4.32;;;;;;;6.74;100.00;99689.69;5033469;28;20053;-68
2023/11/28 03:55:31;;;;;;;10.10;4.40;;;;;;;6.79;100.00;99691.47;5053977;28;20049;-66
2023/11/28 03:57:58;;;;;;;14.77;5.13;;;;;;;6.76;100.00;99697.56;5048576;28;20049;-67
2023/11/28 04:00:26;;;;;;;12.35;4.60;;;;;;;6.88;100.00;99692.31;5047796;28;20053;-66
2023/11/28 04:02:53;;;;;;;7.35;4.00;;;;;;;7.07;100.00;99694.81;5041727;28;20045;-67
2023/11/28 04:05:21;;;;;;;10.52;4.50;;;;;;;6.96;100.00;99705.22;5057153;28;20045;-66
2023/11/28 04:07:48;;;;;;;14.18;4.95;;;;;;;7.00;100.00;99708.97;5076556;28;20036;-67
2023/11/28 04:10:15;;;;;;;10.07;4.55;;;;;;;6.87;100.00;99717.28;5048692;28;20512;-65
2023/11/28 04:12:42;;;;;;;13.30;4.95;;;;;;;7.02;100.00;99725.91;5055457;28;20400;-66
2023/11/28 04:15:10;;;;;;;10.13;4.55;;;;;;;6.81;100.00;99730.28;5028225;28;20057;-66
2023/11/28 04:17:39;;;;;;;11.82;4.68;;;;;;;6.91;100.00;99732.75;5063760;28;20052;-65
2023/11/28 04:20:06;;;;;;;10.70;4.45;;;;;;;7.02;100.00;99741.50;5062799;28;20051;-66
2023/11/28 04:22:34;;;;;;;13.90;4.30;;;;;;;6.94;100.00;99740.31;5063051;28;20049;-66
2023/11/28 04:25:02;;;;;;;13.07;4.72;;;;;;;6.85;100.00;99744.97;5075688;28;20049;-66
2023/11/28 04:27:30;;;;;;;11.80;4.38;;;;;;;6.95;100.00;99738.41;5054990;28;20053;-66
2023/11/28 04:29:57;;;;;;;12.70;4.25;;;;;;;6.92;100.00;99741.78;5054707;28;20060;-66
2023/11/28 04:32:25;;;;;;;10.63;3.92;;;;;;;6.87;100.00;99767.31;5039471;28;20049;-66
2023/11/28 04:34:52;;;;;;;11.70;4.05;;;;;;;7.13;100.00;99751.06;5058129;28;20056;-68
2023/11/28 04:37:19;;;;;;;10.43;4.07;;;;;;;7.06;100.00;99748.75;5063406;28;20057;-66
2023/11/28 04:39:50;;;;;;;;;;;;;;;6.94;100.00;99758.69;5051534;28;20064;-65
2023/11/28 04:42:17;;;;;;;9.40;3.92;;;;;;;6.89;100.00;99759.63;5054435;28;20380;-66
2023/11/28 04:44:44;;;;;;;8.48;3.83;;;;;;;6.88;100.00;99770.88;5054936;28;20056;-66
2023/11/28 04:47:12;;;;;;;8.23;3.60;;;;;;;6.90;100.00;99763.16;5056099;28;20052;-67
2023/11/28 04:49:39;;;;;;;10.82;3.33;;;;;;;6.90;100.00;99779.59;5054194;28;20045;-67
2023/11/28 04:52:06;;;;;;;10.20;3.58;;;;;;;6.96;100.00;99779.16;5055544;28;20059;-67
2023/11/28 04:54:34;;;;;;;10.73;3.10;;;;;;;6.73;100.00;99780.25;5037173;28;20045;-66
2023/11/28 04:57:01;;;;;;;9.38;3.20;;;;;;;6.97;100.00;99780.78;5037176;28;20476;-67
2023/11/28 04:59:28;;;;;;;9.68;3.88;;;;;;;6.93;100.00;99784.44;5062693;28;20415;-67
2023/11/28 05:01:56;;;;;;;9.95;2.90;;;;;;;6.69;100.00;99791.03;5057517;28;20492;-68
2023/11/28 05:04:23;;;;;;;11.52;2.85;;;;;;;6.93;100.00;99793.47;5074874;28;20053;-69
2023/11/28 05:06:51;;;;;;;8.15;3.30;;;;;;;6.99;100.00;99792.19;5048705;28;20052;-65
2023/11/28 05:09:19;;;;;;;11.18;2.90;;;;;;;6.89;100.00;99799.88;5054492;28;20068;-66
2023/11/28 05:11:47;;;;;;;6.80;2.92;;;;;;;6.88;100.00;99795.53;5076084;28;20075;-61
2023/11/28 05:14:14;;;;;;;8.45;2.65;;;;;;;6.87;100.00;99807.59;5034866;28;20049;-63
2023/11/28 05:16:43;;;;;;;6.60;2.83;;;;;;;6.91;100.00;99803.91;5017765;28;20052;-63
2023/11/28 05:19:20;;;;;;;6.68;2.78;;;;;;;6.90;100.00;99817.91;5034370;28;20060;-63
2023/11/28 05:21:48;;;;;;;8.50;2.80;;;;;;;6.82;100.00;99823.00;5017859;28;20065;-63
2023/11/28 05:24:15;;;;;;;8.57;2.60;;;;;;;6.90;100.00;99831.59;5040340;28;20569;-62
2023/11/28 05:26:43;;;;;;;5.45;2.47;;;;;;;6.96;100.00;99835.84;5054578;28;20396;-63
2023/11/28 05:29:12;;;;;;;7.80;2.88;;;;;;;6.86;100.00;99842.38;5052574;28;20404;-62
2023/11/28 05:31:40;;;;;;;6.72;2.40;;;;;;;6.85;99.92;99846.22;5053294;28;20060;-62
2023/11/28 05:34:07;;;;;;;7.63;2.50;;;;;;;6.80;99.55;99860.81;5053223;28;20068;-63
2023/11/28 05:36:34;;;;;;;9.43;2.42;;;;;;;6.81;98.93;99875.34;5054858;28;20064;-63
2023/11/28 05:39:03;;;;;;;5.47;2.28;;;;;;;6.93;98.86;99858.34;5054659;28;20045;-62
2023/11/28 05:41:30;;;;;;;7.22;2.50;;;;;;;7.07;97.87;99875.53;5065864;28;20056;-67
2023/11/28 05:43:58;;;;;;;8.05;2.20;;;;;;;6.98;96.09;99875.47;5063115;28;20055;-67
2023/11/28 05:46:25;;;;;;;10.02;2.80;;;;;;;6.98;96.93;99888.34;5036059;28;20049;-67
2023/11/28 05:48:54;;;;;;;9.18;2.53;;;;;;;6.92;96.83;99906.00;5071126;28;20546;-67
2023/11/28 05:51:21;;;;;;;6.90;2.65;;;;;;;6.74;96.10;99903.13;5074254;28;20052;-66
2023/11/28 05:53:49;;;;;;;5.53;2.20;;;;;;;6.70;96.87;99909.50;5069695;28;20408;-69
2023/11/28 05:56:17;;;;;;;7.95;2.53;;;;;;;6.68;96.82;99909.81;5052864;28;20045;-67
2023/11/28 05:58:44;;;;;;;9.80;2.30;;;;;;;6.80;95.35;99931.16;5053181;28;20057;-66
2023/11/28 06:01:15;;;;;;;8.27;2.30;;;;;;;6.59;90.27;99922.59;5052540;28;20504;-67
2023/11/28 06:03:42;;;;;;;6.05;2.30;;;;;;;6.59;90.94;99935.50;5052779;28;20063;-66
2023/11/28 06:06:10;;;;;;;6.53;2.60;;;;;;;6.62;92.35;99932.94;5063613;28;20062;-66
2023/11/28 06:08:38;;;;;;;7.07;2.53;;;;;;;6.50;91.22;99934.59;5071323;28;20562;-67
2023/11/28 06:11:08;;;;;;;9.95;2.88;;;;;;;6.45;91.85;99926.50;5019302;28;20146;-68
2023/11/28 06:13:36;;;;;;;6.47;2.63;;;;;;;6.65;91.41;99943.28;5048025;28;20112;-66
2023/11/28 06:16:05;;;;;;;8.13;3.42;;;;;;;6.46;89.80;99955.44;5053882;28;20658;-64
2023/11/28 06:18:32;;;;;;;6.20;3.08;;;;;;;6.33;88.51;99973.47;5048821;28;20041;-64
2023/11/28 06:21:00;;;;;;;7.32;3.10;;;;;;;6.15;86.89;99976.31;5048224;28;20044;-65
2023/11/28 06:23:27;;;;;;;6.03;2.80;;;;;;;6.25;86.66;99976.09;5023669;28;20067;-66
2023/11/28 06:25:55;;;;;;;6.80;3.55;;;;;;;6.12;86.22;99974.19;5051805;28;20503;-63
2023/11/28 06:28:22;;;;;;;6.65;2.83;;;;;;;6.06;84.93;99980.84;5049424;28;20052;-64
2023/11/28 06:30:49;;;;;;;8.68;3.15;;;;;;;6.11;84.97;99989.78;5047123;28;20049;-64
2023/11/28 06:33:16;;;;;;;7.70;4.13;;;;;;;6.05;85.70;99987.44;5052901;28;20057;-64
2023/11/28 06:35:44;;;;;;;10.45;3.60;;;;;;;6.00;85.62;99993.00;5028046;28;20056;-64
2023/11/28 06:38:11;;;;;;;7.30;3.80;;;;;;;6.09;85.98;99999.38;5045812;28;20049;-64
2023/11/28 06:40:38;;;;;;;6.18;3.90;;;;;;;6.28;85.17;100009.13;5052134;28;20056;-65
2023/11/28 06:43:06;;;;;;;6.80;4.00;;;;;;;6.16;85.39;100008.00;5049822;28;20045;-64
2023/11/28 06:45:35;;;;;;;8.38;4.10;;;;;;;6.17;85.36;100023.31;5048141;28;20044;-67
2023/11/28 06:48:03;;;;;;;8.75;4.35;;;;;;;6.00;85.39;100018.38;5045410;28;20053;-65
2023/11/28 06:50:30;;;;;;;10.25;3.95;;;;;;;6.02;85.46;100031.75;5037129;28;20055;-66
2023/11/28 06:52:57;;;;;;;8.23;4.40;;;;;;;5.89;86.22;100016.97;5057201;28;20079;-65
2023/11/28 06:55:25;;;;;;;6.18;3.95;;;;;;;5.78;83.87;100022.84;5047382;28;20045;-65
2023/11/28 06:57:52;;;;;;;8.27;4.60;;;;;;;5.71;85.61;100017.78;5041518;28;20053;-66
2023/11/28 07:00:19;;;;;;;7.20;4.60;;;;;;;5.82;85.66;100032.09;5040587;28;20060;-67
2023/11/28 07:02:46;;;;;;;9.82;5.03;;;;;;;6.04;84.64;100030.34;5049937;28;20068;-66
2023/11/28 07:05:14;;;;;;;9.07;5.03;;;;;;;6.21;84.34;100029.78;5053693;28;20040;-66
2023/11/28 07:07:42;;;;;;;10.77;4.43;;;;;;;6.17;83.40;100029.56;5051099;28;20049;-65
2023/11/28 07:10:09;;;;;;;10.80;4.82;;;;;;;6.23;84.16;100035.75;5051496;28;20049;-64
2023/11/28 07:12:36;;;;;;;14.00;5.20;;;;;;;6.14;84.41;100041.09;5051422;28;20045;-65
2023/11/28 07:15:04;;;;;;;12.32;5.25;;;;;;;6.08;85.37;100046.97;5051075;28;20056;-64
2023/11/28 07:17:32;;;;;;;9.30;5.68;;;;;;;6.31;85.26;100065.16;5047363;28;20041;-65
2023/11/28 07:20:01;;;;;;;9.93;5.40;;;;;;;5.98;85.91;100066.28;5022208;28;20140;-65
2023/11/28 07:22:28;;;;;;;8.70;5.05;;;;;;;6.07;86.54;100081.69;5048632;28;20057;-62
2023/11/28 07:24:56;;;;;;;7.85;4.90;;;;;;;5.94;86.65;100082.47;5044112;28;20048;-67
2023/11/28 07:27:28;;;;;;;10.10;5.63;;;;;;;6.00;87.09;100088.66;5057508;28;20056;-67
2023/11/28 07:29:55;;;;;;;9.32;5.57;;;;;;;5.87;87.14;100084.78;5052690;28;20053;-65
2023/11/28 07:32:23;;;;;;;9.35;5.65;;;;;;;5.92;87.32;100087.41;5048926;28;20128;-67
2023/11/28 07:34:51;;;;;;;10.40;6.10;;;;;;;5.90;86.62;100094.28;5051122;28;20053;-65
2023/11/28 07:37:18;;;;;;;9.50;5.88;;;;;;;5.89;87.05;100098.97;5040942;28;20037;-67
2023/11/28 07:39:45;;;;;;;8.82;5.15;;;;;;;6.04;87.95;100095.97;5020712;28;20057;-68
2023/11/28 07:42:15;;;;;;;11.05;6.18;;;;;;;6.15;86.99;100104.81;5035830;28;20489;-65
2023/11/28 07:44:45;;;;;;;9.68;5.65;;;;;;;6.45;87.05;100098.81;5029330;28;20380;-63
2023/11/28 07:47:12;;;;;;;13.20;6.05;;;;;;;6.43;85.57;100114.72;5050324;28;20044;-62
2023/11/28 07:49:43;;;;;;;8.45;5.72;;;;;;;6.38;85.74;100120.28;5046810;28;20080;-66
2023/11/28 07:52:12;;;;;;;10.73;5.97;;;;;;;6.13;86.44;100124.25;5041676;28;20045;-62
2023/11/28 07:54:39;;;;;;;11.13;5.47;;;;;;;6.18;86.61;100129.63;5040462;28;20041;-62
2023/11/28 07:57:06;;;;;;;10.85;5.85;;;;;;;6.17;85.42;100135.41;5050193;28;20045;-62
2023/11/28 07:59:34;;;;;;;11.73;6.80;;;;;;;6.03;85.58;100138.09;5050848;28;20045;-62
2023/11/28 08:02:01;;;;;;;10.35;6.15;;;;;;;6.19;86.78;100147.66;5052656;28;20045;-62
2023/11/28 08:04:29;;;;;;;9.30;6.28;;;;;;;6.27;85.55;100144.25;5051405;28;20053;-62
2023/11/28 08:06:58;;;;;;;11.02;6.07;;;;;;;6.13;85.05;100153.50;5051363;28;20053;-63
2023/11/28 08:09:26;;;;;;;13.35;6.60;;;;;;;6.21;84.24;100148.16;5041696;28;20069;-65
2023/11/28 08:11:53;;;;;;;10.32;5.93;;;;;;;6.25;82.73;100153.84;5040886;28;20041;-66
2023/11/28 08:14:20;;;;;;;9.32;5.50;;;;;;;6.22;82.61;100174.41;5049977;28;20064;-65
2023/11/28 08:16:48;;;;;;;9.30;6.22;;;;;;;6.03;83.63;100170.91;5031868;28;20038;-65
2023/11/28 08:19:16;;;;;;;10.05;6.65;;;;;;;6.18;83.28;100181.59;5046499;28;20045;-65
2023/11/28 08:21:44;;;;;;;16.40;7.13;;;;;;;6.57;83.27;100186.69;5035190;28;20084;-65
2023/11/28 08:24:11;;;;;;;15.25;6.82;;;;;;;6.62;82.02;100200.28;5054774;28;20041;-66
2023/11/28 08:26:38;;;;;;;9.52;6.30;;;;;;;6.35;82.89;100194.69;5050012;28;20049;-67
2023/11/28 08:29:05;;;;;;;9.65;6.00;;;;;;;6.33;83.94;100205.94;5051979;28;20416;-65
2023/11/28 08:31:33;;;;;;;14.65;7.18;;;;;;;6.43;84.87;100203.03;5049027;28;20053;-65
2023/11/28 08:34:00;;;;;;;16.38;6.25;;;;;;;6.13;83.57;100209.00;5042475;28;20754;-65
2023/11/28 08:36:29;;;;;;;12.55;6.53;;;;;;;6.01;85.95;100211.38;5051744;28;20072;-66
2023/11/28 08:38:56;;;;;;;9.60;6.07;;;;;;;6.27;84.87;100218.09;5045998;28;20037;-65
2023/11/28 08:41:23;;;;;;;11.55;6.38;;;;;;;6.20;85.20;100214.91;5034703;28;20053;-65
2023/11/28 08:43:51;;;;;;;12.07;6.50;;;;;;;6.18;85.78;100217.13;5051273;28;20040;-66
2023/11/28 08:46:19;;;;;;;13.23;6.80;;;;;;;6.37;85.17;100228.03;5022145;28;20076;-66
2023/11/28 08:48:50;;;;;;;11.52;6.57;;;;;;;6.46;84.94;100235.28;5036730;28;20036;-65
2023/11/28 08:51:17;;;;;;;11.10;6.00;;;;;;;6.39;85.79;100240.31;5053011;28;20048;-65
2023/11/28 08:53:45;;;;;;;10.63;6.68;;;;;;;6.15;86.17;100249.72;5040304;28;20049;-65
2023/11/28 08:56:13;;;;;;;17.15;6.70;;;;;;;5.78;86.12;100261.41;5048918;28;20041;-65
2023/11/28 08:58:40;;;;;;;10.95;6.55;;;;;;;5.83;88.37;100244.97;5045560;28;20665;-64
2023/11/28 09:01:07;;;;;;;12.50;6.75;;;;;;;5.88;86.72;100247.63;5045057;28;20053;-69
2023/11/28 09:03:35;;;;;;;11.65;6.43;;;;;;;5.87;86.50;100250.66;5044648;28;20068;-64
2023/11/28 09:06:02;;;;;;;13.15;6.60;;;;;;;5.78;87.50;100268.78;5047202;28;20049;-64
2023/11/28 09:08:29;;;;;;;9.13;6.70;;;;;;;5.79;88.33;100265.75;5048394;28;20041;-64
2023/11/28 09:10:57;;;;;;;12.80;7.55;;;;;;;6.08;87.29;100271.16;5042435;28;20054;-64
2023/11/28 09:13:24;;;;;;;10.93;6.95;;;;;;;5.85;88.03;100275.56;5052361;28;20041;-63
2023/11/28 09:15:55;;;;;;;12.55;7.00;;;;;;;6.01;86.12;100279.72;5050280;28;20620;-65
2023/11/28 09:18:22;;;;;;;13.02;6.70;;;;;;;6.01;85.72;100284.38;5047420;28;20045;-65
2023/11/28 09:20:49;;;;;;;14.00;7.07;;;;;;;6.13;84.70;100280.09;5048344;28;20058;-64
2023/11/28 09:23:16;;;;;;;9.07;5.88;;;;;;;6.22;83.45;100294.75;5049877;28;20068;-64
2023/11/28 09:25:44;;;;;;;8.10;5.75;;;;;;;6.14;80.62;100289.09;5071936;28;20402;-66
2023/11/28 09:28:23;;;;;;;11.65;7.35;;;;;;;6.22;79.95;100291.19;5051364;28;20076;-65
2023/11/28 09:30:51;;;;;;;10.93;6.22;;;;;;;6.12;79.19;100297.59;5053553;28;20049;-64
2023/11/28 09:33:18;;;;;;;11.57;5.80;;;;;;;6.30;79.99;100304.19;5045265;28;20072;-64
2023/11/28 09:35:45;;;;;;;11.07;6.50;;;;;;;6.39;79.86;100310.63;5048828;28;20064;-66
2023/11/28 09:38:13;;;;;;;9.65;6.47;;;;;;;6.39;80.28;100307.88;5052849;28;20052;-65
2023/11/28 09:40:40;;;;;;;10.40;6.22;;;;;;;6.18;80.67;100312.84;5047994;28;20040;-65
2023/11/28 09:43:08;;;;;;;16.42;7.57;;;;;;;5.84;80.88;100314.13;5049932;28;20052;-65
2023/11/28 09:45:39;;;;;;;13.43;6.45;;;;;;;5.99;80.55;100311.19;5050615;28;20045;-65
2023/11/28 09:48:09;;;;;;;20.40;6.97;;;;;;;5.92;81.89;100311.53;5049618;28;20050;-65
2023/11/28 09:50:40;;;;;;;10.95;7.13;;;;;;;6.02;81.43;100325.06;5048154;28;20049;-65
2023/11/28 09:53:07;;;;;;;11.90;8.07;;;;;;;6.06;81.16;100331.59;5050784;28;20554;-65
2023/11/28 09:55:35;;;;;;;10.00;6.38;;;;;;;5.99;80.62;100342.06;5048606;28;20056;-65
2023/11/28 09:58:03;;;;;;;11.88;6.40;;;;;;;6.24;80.15;100330.78;5048004;28;20048;-65
2023/11/28 10:00:33;;;;;;;8.75;6.28;;;;;;;6.29;78.03;100335.38;5032622;28;20055;-65
2023/11/28 10:03:03;;;;;;;13.18;7.18;;;;;;;6.52;79.51;100340.00;5047511;28;20072;-66
2023/11/28 10:05:31;;;;;;;8.90;6.72;;;;;;;6.74;77.12;100341.03;5053339;28;20053;-65
2023/11/28 10:07:58;;;;;;;11.45;6.97;;;;;;;6.69;77.15;100356.69;5053841;28;20061;-65
2023/11/28 10:10:26;;;;;;;12.82;7.45;;;;;;;6.37;78.45;100349.22;5052205;28;20065;-65
2023/11/28 10:12:56;;;;;;;12.02;7.25;;;;;;;6.50;78.23;100348.47;5043943;28;20583;-65
2023/11/28 10:15:25;;;;;;;;;;;;;;;6.61;77.22;100351.88;5043199;28;20125;-65
2023/11/28 10:17:53;;;;;;;12.88;6.78;;;;;;;6.53;78.12;100352.56;5051516;28;19924;-66
2023/11/28 10:20:21;;;;;;;12.40;6.65;;;;;;;6.70;77.80;100350.94;5052943;28;20053;-65
2023/11/28 10:22:53;;;;;;;8.95;6.25;;;;;;;6.33;77.71;100341.91;5048357;28;20048;-64
2023/11/28 10:25:24;;;;;;;10.40;6.70;;;;;;;6.51;78.37;100354.75;5050656;28;20053;-65
2023/11/28 10:27:57;;;;;;;15.95;6.65;;;;;;;6.78;77.63;100357.66;5044539;28;20060;-65
2023/11/28 10:30:27;;;;;;;15.20;7.30;;;;;;;6.74;77.52;100353.88;5038475;28;20060;-65
2023/11/28 10:32:58;;;;;;;12.05;7.03;;;;;;;6.93;77.24;100348.38;5043261;28;20056;-65
2023/11/28 10:35:39;;;;;;;13.55;7.40;;;;;;;6.95;76.80;100351.63;5043493;28;20060;-66
2023/11/28 10:38:11;;;;;;;32.88;7.78;;;;;;;7.09;77.08;100353.31;5050988;28;20128;-65
2023/11/28 10:40:38;;;;;;;15.25;6.95;;;;;;;6.88;76.87;100351.19;5037057;28;20052;-65
2023/11/28 10:43:07;;;;;;;13.45;6.00;;;;;;;6.55;76.58;100364.84;5039947;28;20129;-65
2023/11/28 10:45:34;;;;;;;12.23;5.30;;;;;;;6.63;76.04;100363.34;5062630;28;20704;-65
2023/11/28 10:48:02;;;;;;;11.00;6.43;;;;;;;6.64;76.64;100365.78;5048756;28;20053;-66
2023/11/28 10:50:33;;;;;;;9.93;6.15;;;;;;;6.33;78.62;100374.72;5047657;28;20083;-64
2023/11/28 10:53:04;;;;;;;10.63;5.50;;;;;;;6.39;78.83;100377.09;5050655;28;20053;-65
2023/11/28 10:55:38;;;;;;;9.35;5.35;;;;;;;6.52;77.31;100368.16;5062638;28;20049;-66
2023/11/28 10:58:06;;;;;;;9.73;5.43;;;;;;;6.61;76.15;100377.31;5046742;28;20064;-64
2023/11/28 11:00:38;;;;;;;10.63;5.10;;;;;;;6.53;76.65;100371.69;5053166;28;20041;-65
2023/11/28 11:03:07;;;;;;;8.43;5.43;;;;;;;6.63;76.58;100366.09;5048174;28;20052;-67
2023/11/28 11:05:34;;;;;;;12.30;5.87;;;;;;;6.67;76.62;100361.66;5048604;28;20052;-65
2023/11/28 11:08:05;;;;;;;9.65;6.00;;;;;;;6.92;76.64;100357.72;5046691;28;20053;-65
2023/11/28 11:10:33;;;;;;;11.95;5.57;;;;;;;6.89;76.08;100374.75;5046221;28;20041;-65
2023/11/28 11:13:13;;;;;;;9.55;5.30;;;;;;;6.40;77.43;100370.50;5047347;28;20045;-66
2023/11/28 11:15:46;;;;;;;11.63;6.00;;;;;;;6.78;77.03;100371.34;5047927;28;20045;-65
2023/11/28 11:18:34;;;;;;;9.88;5.30;;;;;;;6.61;74.79;100369.13;5044578;28;20045;-66
2023/11/28 11:21:14;;;;;;;12.73;5.40;;;;;;;6.37;74.89;100378.47;5055693;28;20079;-67
2023/11/28 11:23:46;;;;;;;9.80;4.50;;;;;;;6.44;75.80;100376.19;5048454;28;20071;-67
2023/11/28 11:26:13;;;;;;;11.93;5.93;;;;;;;6.65;75.34;100378.38;5044785;28;20053;-64
2023/11/28 11:28:41;;;;;;;10.45;5.18;;;;;;;6.63;74.72;100372.38;5052336;28;20044;-64
2023/11/28 11:31:10;;;;;;;10.52;5.60;;;;;;;6.44;76.12;100374.28;5050082;28;20072;-66
2023/11/28 11:33:38;;;;;;;13.50;6.43;;;;;;;6.66;75.79;100370.94;5050085;28;20053;-65
2023/11/28 11:36:07;;;;;;;11.40;6.80;;;;;;;6.76;75.27;100374.34;5049954;28;20062;-65